CPX773 Details

Departure: Liège Airport (EBLG)
Arrival: Kuwait International Airport (OKBK)
Route: TUTOV FFM L984 OSBIT UZ205 LULAR Z205 ABUDO Z37 GIMBO INVED M747 CND L5 ADINA L851 KUGOS UW704 SIN CRM UM688 AD AD2D


Current Weather Information
EBLG 200850Z 22008KT CAVOK 08/04 Q1034 NOSIG
OKBK 200900Z 08003KT 7000 NSC 24/02 Q1015 NOSIG